Time;durP1;ratioP1;P1;durP2;ratioP2;P2;SDS_P1;SDS_P2;PMS_P1;PMS_P2;Temp;Humidity;BMP_temperature;BMP_pressure;BME280_temperature;BME280_humidity;BME280_pressure;Samples;Min_cycle;Max_cycle;Signal;HPM_P1;HPM_P2
2023/06/04 00:00:47;;;;;;;14.70;3.75;;;;;;;;;;6341342;22;20021;-90
2023/06/04 00:03:14;;;;;;;12.27;3.70;;;;;;;;;;6342218;22;20003;-90
2023/06/04 00:05:41;;;;;;;17.92;4.28;;;;;;;;;;6341885;22;20003;-91
2023/06/04 00:08:07;;;;;;;12.57;4.10;;;;;;;;;;6340671;22;20111;-91
2023/06/04 00:10:43;;;;;;;10.35;4.28;;;;;;;;;;6312009;22;20353;-89
2023/06/04 00:13:09;;;;;;;9.25;3.75;;;;;;;;;;6335742;22;20026;-91
2023/06/04 00:15:36;;;;;;;13.82;3.58;;;;;;;;;;6333960;22;20321;-90
2023/06/04 00:18:02;;;;;;;6.97;3.95;;;;;;;;;;6308910;22;20007;-90
2023/06/04 00:20:29;;;;;;;11.18;4.05;;;;;;;;;;6308141;22;20571;-91
2023/06/04 00:22:56;;;;;;;10.18;3.35;;;;;;;;;;6305674;22;20830;-90
2023/06/04 00:25:22;;;;;;;9.55;3.50;;;;;;;;;;6333378;22;20105;-90
2023/06/04 00:27:48;;;;;;;11.35;4.72;;;;;;;;;;6334060;22;20006;-91
2023/06/04 00:30:14;;;;;;;10.63;4.10;;;;;;;;;;6333877;22;20007;-90
2023/06/04 00:32:42;;;;;;;9.05;3.78;;;;;;;;;;6307280;22;20007;-90
2023/06/04 00:35:09;;;;;;;14.82;3.80;;;;;;;;;;6338424;22;20031;-91
2023/06/04 00:37:35;;;;;;;7.25;3.53;;;;;;;;;;6333756;22;20059;-90
2023/06/04 00:40:02;;;;;;;13.68;4.10;;;;;;;;;;6334339;22;20010;-91
2023/06/04 00:42:34;;;;;;;16.67;3.92;;;;;;;;;;6341568;22;20447;-90
2023/06/04 00:45:01;;;;;;;15.43;4.18;;;;;;;;;;6316245;22;20478;-91
2023/06/04 00:47:37;;;;;;;15.95;4.57;;;;;;;;;;6314978;22;20011;-91
2023/06/04 00:50:03;;;;;;;8.10;3.90;;;;;;;;;;6338314;22;20002;-91
2023/06/04 00:52:30;;;;;;;6.55;3.70;;;;;;;;;;6314391;22;20013;-90
2023/06/04 00:54:56;;;;;;;8.63;3.78;;;;;;;;;;6311878;22;20013;-90
2023/06/04 00:57:28;;;;;;;7.35;3.92;;;;;;;;;;6313084;22;20021;-90
2023/06/04 00:59:57;;;;;;;12.20;4.03;;;;;;;;;;6338427;22;20013;-90
2023/06/04 01:02:24;;;;;;;12.40;4.00;;;;;;;;;;6339314;22;20010;-90
2023/06/04 01:05:08;;;;;;;18.02;4.22;;;;;;;;;;6338059;22;20006;-90
2023/06/04 01:07:35;;;;;;;15.60;4.70;;;;;;;;;;6337765;22;20010;-90
2023/06/04 01:10:04;;;;;;;10.40;4.35;;;;;;;;;;6338132;22;20006;-90
2023/06/04 01:12:33;;;;;;;11.57;4.30;;;;;;;;;;6313424;22;20003;-90
2023/06/04 01:15:08;;;;;;;12.73;5.35;;;;;;;;;;6311454;22;19999;-88
2023/06/04 01:17:43;;;;;;;9.77;4.18;;;;;;;;;;6314282;22;20010;-89
2023/06/04 01:20:47;;;;;;;13.68;4.88;;;;;;;;;;6342554;22;20085;-90
2023/06/04 01:23:34;;;;;;;21.13;5.03;;;;;;;;;;6216673;23;20020;-90
2023/06/04 01:26:03;;;;;;;9.93;4.10;;;;;;;;;;6217707;23;20502;-90
2023/06/04 01:28:33;;;;;;;11.10;4.95;;;;;;;;;;6296254;22;20002;-90
2023/06/04 01:31:02;;;;;;;11.38;4.85;;;;;;;;;;6341925;22;20009;-90
2023/06/04 01:33:29;;;;;;;10.43;4.60;;;;;;;;;;6344124;22;20006;-89
2023/06/04 01:36:22;;;;;;;13.57;4.72;;;;;;;;;;6317177;22;20140;-90
2023/06/04 01:38:49;;;;;;;7.97;4.07;;;;;;;;;;6343096;22;20370;-89
2023/06/04 01:41:15;;;;;;;10.35;4.90;;;;;;;;;;6318914;22;20053;-91
2023/06/04 01:43:44;;;;;;;10.90;5.00;;;;;;;;;;6345056;22;20006;-93
2023/06/04 01:46:11;;;;;;;15.82;5.38;;;;;;;;;;6344922;22;20065;-93
2023/06/04 01:48:40;;;;;;;14.77;5.18;;;;;;;;;;6318351;22;20065;-93
2023/06/04 01:51:09;;;;;;;12.40;4.78;;;;;;;;;;6319608;22;20093;-93
2023/06/04 01:53:39;;;;;;;13.43;4.80;;;;;;;;;;6317550;22;20033;-92
2023/06/04 01:56:09;;;;;;;13.55;4.93;;;;;;;;;;6341985;22;20002;-92
2023/06/04 01:58:36;;;;;;;15.48;4.82;;;;;;;;;;6344583;22;20010;-92
2023/06/04 02:01:09;;;;;;;13.65;5.03;;;;;;;;;;6317873;22;20341;-93
2023/06/04 02:03:40;;;;;;;11.30;4.93;;;;;;;;;;6343570;22;20055;-92
2023/06/04 02:06:07;;;;;;;14.82;5.32;;;;;;;;;;6342910;22;20048;-93
2023/06/04 02:08:37;;;;;;;14.45;4.53;;;;;;;;;;6342496;22;20013;-91
2023/06/04 02:11:03;;;;;;;14.50;4.75;;;;;;;;;;6315907;22;20010;-92
2023/06/04 02:13:30;;;;;;;11.65;4.28;;;;;;;;;;6314685;22;20010;-92
2023/06/04 02:15:56;;;;;;;13.45;5.20;;;;;;;;;;6341142;22;20169;-92
2023/06/04 02:18:22;;;;;;;12.57;6.55;;;;;;;;;;6342328;22;20002;-93
2023/06/04 02:20:50;;;;;;;18.70;4.90;;;;;;;;;;6338897;22;20488;-91
2023/06/04 02:23:17;;;;;;;16.92;5.43;;;;;;;;;;6316353;22;20035;-92
2023/06/04 02:25:47;;;;;;;18.42;4.90;;;;;;;;;;6341513;22;20140;-92
2023/06/04 02:28:24;;;;;;;13.02;4.97;;;;;;;;;;6340701;22;20006;-93
2023/06/04 02:30:53;;;;;;;18.00;5.15;;;;;;;;;;6340923;22;20432;-92
2023/06/04 02:33:20;;;;;;;18.27;4.93;;;;;;;;;;6341657;22;20006;-91
2023/06/04 02:35:49;;;;;;;16.02;5.32;;;;;;;;;;6342895;22;19998;-93
2023/06/04 02:38:18;;;;;;;9.55;4.57;;;;;;;;;;6341981;22;20006;-93
2023/06/04 02:40:47;;;;;;;14.50;5.20;;;;;;;;;;6339988;22;20556;-92
2023/06/04 02:43:15;;;;;;;11.90;4.78;;;;;;;;;;6317783;22;20434;-93
2023/06/04 02:45:41;;;;;;;11.80;4.88;;;;;;;;;;6315752;22;20009;-92
2023/06/04 02:48:09;;;;;;;9.45;5.28;;;;;;;;;;6315583;22;20340;-92
2023/06/04 02:50:44;;;;;;;11.93;5.13;;;;;;;;;;6315399;22;20471;-92
2023/06/04 02:53:13;;;;;;;10.10;5.32;;;;;;;;;;6340571;22;20428;-91
2023/06/04 02:55:42;;;;;;;13.35;5.10;;;;;;;;;;6339967;22;20003;-91
2023/06/04 02:58:18;;;;;;;14.65;4.97;;;;;;;;;;6315020;22;20006;-91
2023/06/04 03:00:46;;;;;;;15.50;6.30;;;;;;;;;;6313144;22;20356;-92
2023/06/04 03:03:15;;;;;;;12.10;4.72;;;;;;;;;;6313356;22;20006;-92
2023/06/04 03:05:44;;;;;;;16.13;5.50;;;;;;;;;;6313431;22;20026;-91
2023/06/04 03:08:15;;;;;;;18.02;5.78;;;;;;;;;;6341331;22;20153;-92
2023/06/04 03:11:02;;;;;;;13.90;4.90;;;;;;;;;;6314982;22;20090;-93
2023/06/04 03:13:28;;;;;;;11.05;4.95;;;;;;;;;;6340853;22;20043;-92
2023/06/04 03:15:55;;;;;;;12.38;5.63;;;;;;;;;;6314900;22;20066;-90
2023/06/04 03:18:22;;;;;;;15.68;5.80;;;;;;;;;;6314971;22;20093;-91
2023/06/04 03:21:01;;;;;;;17.83;6.18;;;;;;;;;;6340445;22;20454;-91
2023/06/04 03:23:27;;;;;;;15.85;6.05;;;;;;;;;;6339501;22;20014;-92
2023/06/04 03:25:53;;;;;;;14.02;5.93;;;;;;;;;;6314086;22;20089;-91
2023/06/04 03:28:19;;;;;;;21.70;6.63;;;;;;;;;;6341251;22;20002;-91
2023/06/04 03:33:45;;;;;;;15.02;6.00;;;;;;;;;;6344503;22;20006;-91
2023/06/04 03:36:31;;;;;;;12.07;5.28;;;;;;;;;;6341863;22;20321;-92
2023/06/04 03:47:45;;;;;;;11.32;5.22;;;;;;;;;;6370595;22;20267;-91
2023/06/04 03:53:06;;;;;;;9.52;5.20;;;;;;;;;;6351003;22;20340;-91
2023/06/04 03:55:42;;;;;;;17.33;5.78;;;;;;;;;;6335857;22;19999;-91
2023/06/04 03:58:11;;;;;;;11.80;5.55;;;;;;;;;;6338032;22;20431;-90
2023/06/04 04:00:37;;;;;;;14.35;4.63;;;;;;;;;;6315298;22;20010;-89
2023/06/04 04:03:06;;;;;;;15.40;5.70;;;;;;;;;;6312838;22;20026;-89
2023/06/04 04:05:35;;;;;;;8.98;4.50;;;;;;;;;;6315259;22;20010;-91
2023/06/04 04:08:22;;;;;;;9.98;5.28;;;;;;;;;;6313882;22;20480;-90
2023/06/04 04:10:49;;;;;;;12.75;4.85;;;;;;;;;;6341130;22;20009;-90
2023/06/04 04:13:15;;;;;;;18.05;5.28;;;;;;;;;;6341546;22;20113;-90
2023/06/04 04:15:43;;;;;;;10.05;4.85;;;;;;;;;;6317389;22;20069;-91
2023/06/04 04:18:10;;;;;;;20.10;5.43;;;;;;;;;;6342474;22;20010;-91
2023/06/04 04:20:45;;;;;;;9.98;5.15;;;;;;;;;;6341266;22;20014;-91
2023/06/04 04:23:17;;;;;;;17.05;5.70;;;;;;;;;;6341184;22;20434;-91
2023/06/04 04:25:53;;;;;;;9.40;5.53;;;;;;;;;;6317076;22;20017;-91
2023/06/04 04:28:19;;;;;;;12.50;5.78;;;;;;;;;;6341728;22;20003;-90
2023/06/04 04:31:02;;;;;;;10.48;5.35;;;;;;;;;;6340927;22;20059;-91
2023/06/04 04:33:41;;;;;;;11.30;5.15;;;;;;;;;;6339219;22;20009;-92
2023/06/04 04:36:12;;;;;;;11.50;4.80;;;;;;;;;;6315115;22;20055;-92
2023/06/04 04:38:38;;;;;;;18.75;5.80;;;;;;;;;;6313989;22;20473;-91
2023/06/04 04:41:04;;;;;;;12.18;5.97;;;;;;;;;;6338818;22;20041;-91
2023/06/04 04:43:39;;;;;;;14.35;6.43;;;;;;;;;;6313176;22;20010;-91
2023/06/04 04:46:06;;;;;;;19.77;6.60;;;;;;;;;;6340066;22;20007;-91
2023/06/04 04:48:32;;;;;;;16.35;6.65;;;;;;;;;;6338578;22;20497;-91
2023/06/04 04:51:02;;;;;;;16.67;7.32;;;;;;;;;;6339517;22;19999;-91
2023/06/04 04:53:31;;;;;;;13.40;6.95;;;;;;;;;;6313001;22;20006;-91
2023/06/04 04:55:58;;;;;;;17.23;6.40;;;;;;;;;;6338837;22;20454;-91
2023/06/04 04:58:24;;;;;;;21.50;7.03;;;;;;;;;;6337119;22;20099;-91
2023/06/04 05:00:50;;;;;;;18.70;7.47;;;;;;;;;;6310353;22;20144;-91
2023/06/04 05:03:24;;;;;;;20.48;8.00;;;;;;;;;;6313278;22;20030;-91
2023/06/04 05:05:50;;;;;;;17.92;7.70;;;;;;;;;;6315369;22;20281;-91
2023/06/04 05:08:42;;;;;;;13.57;7.95;;;;;;;;;;6314384;22;20461;-91
2023/06/04 05:11:08;;;;;;;13.18;6.15;;;;;;;;;;6321848;22;20018;-91
2023/06/04 05:13:37;;;;;;;15.52;6.90;;;;;;;;;;6340044;22;20041;-91
2023/06/04 05:16:07;;;;;;;18.40;6.18;;;;;;;;;;6315082;22;20015;-90
2023/06/04 05:18:36;;;;;;;12.88;5.97;;;;;;;;;;6316973;22;20088;-91
2023/06/04 05:21:02;;;;;;;12.23;5.80;;;;;;;;;;6341909;22;20006;-91
2023/06/04 05:23:30;;;;;;;10.07;5.32;;;;;;;;;;6341475;22;20002;-90
2023/06/04 05:25:56;;;;;;;16.92;5.07;;;;;;;;;;6314366;22;20010;-90
2023/06/04 05:28:28;;;;;;;15.73;5.30;;;;;;;;;;6314130;22;20014;-90
2023/06/04 05:30:59;;;;;;;13.13;4.75;;;;;;;;;;6314603;22;20006;-90
2023/06/04 05:33:28;;;;;;;10.27;4.53;;;;;;;;;;6313997;22;20006;-91
2023/06/04 05:35:57;;;;;;;10.02;5.35;;;;;;;;;;6339583;22;20058;-90
2023/06/04 05:38:27;;;;;;;8.05;4.47;;;;;;;;;;6314527;22;20357;-92
2023/06/04 05:40:59;;;;;;;7.22;4.07;;;;;;;;;;6341600;22;20017;-91
2023/06/04 05:43:25;;;;;;;10.68;4.13;;;;;;;;;;6341895;22;20340;-92
2023/06/04 05:45:53;;;;;;;8.43;4.45;;;;;;;;;;6337641;22;19998;-90
2023/06/04 05:48:20;;;;;;;18.73;4.50;;;;;;;;;;6316289;22;20022;-90
2023/06/04 05:50:47;;;;;;;12.93;4.47;;;;;;;;;;6311840;22;20037;-88
2023/06/04 05:53:13;;;;;;;10.88;3.50;;;;;;;;;;6314867;22;20016;-89
2023/06/04 05:55:39;;;;;;;12.27;3.72;;;;;;;;;;6338565;22;20308;-91
2023/06/04 05:58:09;;;;;;;8.25;3.70;;;;;;;;;;6314867;22;20020;-90
2023/06/04 06:00:35;;;;;;;10.75;4.50;;;;;;;;;;6340713;22;20013;-90
2023/06/04 06:03:01;;;;;;;15.52;4.03;;;;;;;;;;6340456;22;20014;-91
2023/06/04 06:05:27;;;;;;;12.25;4.65;;;;;;;;;;6314780;22;20030;-91
2023/06/04 06:07:57;;;;;;;11.93;4.00;;;;;;;;;;6341191;22;20449;-90
2023/06/04 06:10:23;;;;;;;12.63;4.13;;;;;;;;;;6338677;22;20413;-90
2023/06/04 06:12:49;;;;;;;8.40;3.50;;;;;;;;;;6340047;22;20047;-90
2023/06/04 06:15:25;;;;;;;10.65;4.20;;;;;;;;;;6339771;22;20454;-91
2023/06/04 06:17:55;;;;;;;7.97;3.30;;;;;;;;;;6316582;22;20033;-92
2023/06/04 06:20:21;;;;;;;9.20;3.53;;;;;;;;;;6341181;22;20530;-90
2023/06/04 06:22:54;;;;;;;9.30;3.40;;;;;;;;;;6341933;22;20008;-90
2023/06/04 06:26:01;;;;;;;6.80;2.97;;;;;;;;;;6341117;22;20002;-91
2023/06/04 06:28:30;;;;;;;9.25;3.42;;;;;;;;;;6298152;22;20408;-90
2023/06/04 06:30:56;;;;;;;8.80;3.17;;;;;;;;;;6316535;22;20010;-90
2023/06/04 06:33:23;;;;;;;9.50;2.53;;;;;;;;;;6315289;22;20093;-91
2023/06/04 06:35:49;;;;;;;12.40;2.78;;;;;;;;;;6315526;22;20002;-90
2023/06/04 06:41:30;;;;;;;11.48;2.50;;;;;;;;;;6272256;22;20008;-91
2023/06/04 06:43:55;;;;;;;9.35;2.50;;;;;;;;;;6366918;22;20389;-90
2023/06/04 06:46:27;;;;;;;7.55;2.55;;;;;;;;;;6312955;22;20007;-91
2023/06/04 06:48:56;;;;;;;9.13;2.15;;;;;;;;;;6338669;22;20303;-90
2023/06/04 06:51:30;;;;;;;5.85;2.10;;;;;;;;;;6313874;22;20007;-90
2023/06/04 06:53:56;;;;;;;7.30;2.53;;;;;;;;;;6337934;22;20063;-86
2023/06/04 06:56:26;;;;;;;9.43;2.22;;;;;;;;;;6337651;22;20211;-92
2023/06/04 06:58:52;;;;;;;7.07;2.83;;;;;;;;;;6316223;22;20374;-90
2023/06/04 07:01:21;;;;;;;5.47;2.10;;;;;;;;;;6335743;22;20190;-89
2023/06/04 07:03:51;;;;;;;6.03;2.30;;;;;;;;;;6340210;22;20010;-91
2023/06/04 07:06:21;;;;;;;6.50;1.92;;;;;;;;;;6315079;22;20025;-89
2023/06/04 07:11:42;;;;;;;11.57;2.25;;;;;;;;;;6317037;22;20082;-90
2023/06/04 07:14:16;;;;;;;7.55;2.35;;;;;;;;;;6313030;22;20405;-90
2023/06/04 07:16:48;;;;;;;9.32;3.22;;;;;;;;;;6314450;22;20436;-89
2023/06/04 07:22:36;;;;;;;7.38;1.70;;;;;;;;;;6268921;22;20007;-90
2023/06/04 07:27:58;;;;;;;5.28;1.80;;;;;;;;;;6268391;22;20012;-90
2023/06/04 07:30:27;;;;;;;6.88;2.15;;;;;;;;;;6337851;22;20003;-90
2023/06/04 07:32:59;;;;;;;3.42;1.42;;;;;;;;;;6339277;22;20576;-90
2023/06/04 07:35:36;;;;;;;3.05;1.85;;;;;;;;;;6313253;22;20008;-89
2023/06/04 07:38:11;;;;;;;6.50;1.85;;;;;;;;;;6339803;22;20088;-91
2023/06/04 07:40:39;;;;;;;3.50;1.75;;;;;;;;;;6341663;22;19998;-89
2023/06/04 07:43:15;;;;;;;5.47;1.80;;;;;;;;;;6340649;22;20311;-90
2023/06/04 07:45:53;;;;;;;3.70;1.83;;;;;;;;;;6338919;22;20036;-90
2023/06/04 07:48:26;;;;;;;7.88;2.40;;;;;;;;;;6317942;22;20020;-91
2023/06/04 07:50:55;;;;;;;6.15;1.90;;;;;;;;;;6341801;22;20085;-91
2023/06/04 07:53:49;;;;;;;5.35;2.08;;;;;;;;;;6339661;22;20024;-89
2023/06/04 07:56:18;;;;;;;5.55;1.98;;;;;;;;;;6340191;22;20002;-90
2023/06/04 07:58:45;;;;;;;4.82;1.67;;;;;;;;;;6310930;22;20014;-90
2023/06/04 08:01:11;;;;;;;4.30;1.80;;;;;;;;;;6333883;22;20048;-88
2023/06/04 08:03:40;;;;;;;4.00;1.83;;;;;;;;;;6311172;22;20282;-90
2023/06/04 08:06:10;;;;;;;9.10;2.10;;;;;;;;;;6309223;22;20010;-90
2023/06/04 08:08:50;;;;;;;5.22;1.75;;;;;;;;;;6339605;22;20020;-92
2023/06/04 08:11:25;;;;;;;3.22;1.63;;;;;;;;;;6338635;22;20006;-92
2023/06/04 08:13:56;;;;;;;7.03;2.25;;;;;;;;;;6338919;22;19998;-90
2023/06/04 08:16:35;;;;;;;;;;;;;;;;;;;;;
2023/06/04 08:19:07;;;;;;;6.22;2.25;;;;;;;;;;6341224;22;20078;-91
2023/06/04 08:21:34;;;;;;;12.23;2.05;;;;;;;;;;6313488;22;20497;-90
2023/06/04 08:24:01;;;;;;;7.45;2.15;;;;;;;;;;6340614;22;20384;-90
2023/06/04 08:29:25;;;;;;;7.47;2.10;;;;;;;;;;6351130;22;20423;-94
2023/06/04 08:32:18;;;;;;;5.85;1.83;;;;;;;;;;6345001;22;20327;-93
2023/06/04 08:34:51;;;;;;;8.25;2.03;;;;;;;;;;6325153;22;20476;-92
2023/06/04 08:37:21;;;;;;;7.40;2.40;;;;;;;;;;6343075;22;20061;-89
2023/06/04 08:39:50;;;;;;;7.93;2.58;;;;;;;;;;6309665;22;20006;-86
2023/06/04 08:42:36;;;;;;;6.53;2.00;;;;;;;;;;6312241;22;20013;-91
2023/06/04 08:45:03;;;;;;;5.85;2.00;;;;;;;;;;6341358;22;20063;-89
2023/06/04 08:47:30;;;;;;;2.47;1.75;;;;;;;;;;6343120;22;20011;-88
2023/06/04 08:50:00;;;;;;;6.50;1.80;;;;;;;;;;6345081;22;20010;-90
2023/06/04 08:52:27;;;;;;;5.65;1.80;;;;;;;;;;6341110;22;20429;-90
2023/06/04 08:54:54;;;;;;;5.35;1.88;;;;;;;;;;6344650;22;20012;-88
2023/06/04 08:57:23;;;;;;;10.00;2.28;;;;;;;;;;6320125;22;20006;-91
2023/06/04 08:59:57;;;;;;;7.57;2.00;;;;;;;;;;6349796;22;20196;-93
2023/06/04 09:02:27;;;;;;;3.53;1.67;;;;;;;;;;6351820;22;20439;-92
2023/06/04 09:05:02;;;;;;;5.07;1.98;;;;;;;;;;6349719;22;20091;-91
2023/06/04 09:07:31;;;;;;;3.95;2.15;;;;;;;;;;6349231;22;20387;-89
2023/06/04 09:09:59;;;;;;;4.75;1.63;;;;;;;;;;6344560;22;20747;-90
2023/06/04 09:12:34;;;;;;;3.78;1.80;;;;;;;;;;6343320;22;20014;-90
2023/06/04 09:15:02;;;;;;;4.47;1.90;;;;;;;;;;6316314;22;20007;-90
2023/06/04 09:17:33;;;;;;;5.75;1.70;;;;;;;;;;6314496;22;20446;-90
2023/06/04 09:19:59;;;;;;;2.47;1.58;;;;;;;;;;6339201;22;20010;-90
2023/06/04 09:22:40;;;;;;;6.18;1.67;;;;;;;;;;6346916;22;20022;-90
2023/06/04 09:25:21;;;;;;;4.28;1.70;;;;;;;;;;6343187;22;20014;-90
2023/06/04 09:30:37;;;;;;;4.47;1.77;;;;;;;;;;6335466;22;20013;-90
2023/06/04 09:33:11;;;;;;;6.63;1.75;;;;;;;;;;6317158;22;20318;-90
2023/06/04 09:35:38;;;;;;;5.13;1.75;;;;;;;;;;6315885;22;20002;-90
2023/06/04 09:38:11;;;;;;;5.63;2.20;;;;;;;;;;6315163;22;20002;-92
2023/06/04 09:41:06;;;;;;;;;;;;;;;;;;;;;
2023/06/04 09:43:35;;;;;;;4.47;1.90;;;;;;;;;;6370293;22;20101;-91
2023/06/04 09:46:28;;;;;;;6.72;1.83;;;;;;;;;;6342856;22;20006;-92
2023/06/04 09:49:08;;;;;;;2.95;1.70;;;;;;;;;;6345734;22;20397;-92
2023/06/04 09:51:47;;;;;;;5.97;1.75;;;;;;;;;;6342508;22;20168;-92
2023/06/04 09:54:17;;;;;;;4.75;2.15;;;;;;;;;;6341174;22;20026;-91
2023/06/04 09:56:46;;;;;;;3.70;1.67;;;;;;;;;;6340991;22;20037;-91
2023/06/04 09:59:18;;;;;;;3.75;1.45;;;;;;;;;;6318957;22;20011;-92
2023/06/04 10:02:20;;;;;;;6.18;1.88;;;;;;;;;;6348204;22;20007;-91
2023/06/04 10:04:39;;;;;;;2.15;1.70;;;;;;;;;;6365999;22;20058;-91
2023/06/04 10:07:06;;;;;;;3.88;1.80;;;;;;;;;;6345496;22;20012;-91
2023/06/04 10:09:37;;;;;;;3.72;1.70;;;;;;;;;;6349313;22;20007;-90
2023/06/04 10:12:12;;;;;;;3.15;1.70;;;;;;;;;;6343119;22;20006;-92
2023/06/04 10:14:53;;;;;;;5.40;1.65;;;;;;;;;;6325152;22;19994;-91
2023/06/04 10:17:27;;;;;;;2.45;1.40;;;;;;;;;;6343998;22;20051;-92
2023/06/04 10:19:54;;;;;;;;;;;;;;;;;;6319052;22;20467;-93
2023/06/04 10:22:20;;;;;;;;;;;;;;;;;;6345495;22;19898;-93
2023/06/04 10:24:46;;;;;;;5.38;1.73;;;;;;;;;;6344584;22;19906;-93
2023/06/04 10:27:22;;;;;;;5.68;2.03;;;;;;;;;;6320125;22;20025;-92
2023/06/04 10:29:48;;;;;;;2.40;1.40;;;;;;;;;;6345623;22;20431;-94
2023/06/04 10:32:17;;;;;;;3.40;1.45;;;;;;;;;;6321047;22;20010;-94
2023/06/04 10:43:34;;;;;;;;;;;;;;;;;;;;;
2023/06/04 10:46:24;;;;;;;5.47;1.88;;;;;;;;;;6376590;22;20021;-94
2023/06/04 10:48:51;;;;;;;3.38;1.75;;;;;;;;;;6353632;22;20003;-94
2023/06/04 10:51:39;;;;;;;6.93;1.77;;;;;;;;;;6348444;22;20070;-95
2023/06/04 10:54:08;;;;;;;4.57;2.03;;;;;;;;;;6325386;22;20006;-94
2023/06/04 10:59:24;;;;;;;3.08;1.55;;;;;;;;;;6344949;22;20058;-95
2023/06/04 11:02:23;;;;;;;4.78;2.50;;;;;;;;;;6343217;22;20018;-96
2023/06/04 11:05:09;;;;;;;2.03;1.58;;;;;;;;;;6319308;22;20472;-96
2023/06/04 11:07:57;;;;;;;2.88;1.80;;;;;;;;;;6291176;22;20046;-96
2023/06/04 11:10:35;;;;;;;4.40;1.75;;;;;;;;;;6297303;22;20416;-96
2023/06/04 11:13:03;;;;;;;4.22;2.10;;;;;;;;;;6319664;22;19999;-96
2023/06/04 11:15:46;;;;;;;5.05;1.85;;;;;;;;;;6290987;22;20048;-96
2023/06/04 11:18:21;;;;;;;7.80;1.80;;;;;;;;;;6316138;22;20052;-96
2023/06/04 11:21:03;;;;;;;4.90;1.65;;;;;;;;;;6321214;22;20340;-96
2023/06/04 11:23:29;;;;;;;2.75;1.42;;;;;;;;;;6321731;22;20010;-96
2023/06/04 11:26:04;;;;;;;3.72;1.50;;;;;;;;;;6320438;22;20056;-96
2023/06/04 11:28:38;;;;;;;2.60;1.57;;;;;;;;;;6282601;22;20013;-96
2023/06/04 11:31:08;;;;;;;5.30;1.77;;;;;;;;;;6262407;22;20109;-95
2023/06/04 11:33:50;;;;;;;4.97;1.80;;;;;;;;;;6258333;22;20007;-96
2023/06/04 11:36:26;;;;;;;2.15;1.60;;;;;;;;;;6282281;22;20004;-94
2023/06/04 11:38:57;;;;;;;4.05;1.75;;;;;;;;;;6304400;22;20002;-96
2023/06/04 11:41:24;;;;;;;5.00;1.65;;;;;;;;;;6342190;22;20350;-96
2023/06/04 11:43:57;;;;;;;2.33;1.90;;;;;;;;;;6345604;22;20002;-96
2023/06/04 11:46:28;;;;;;;2.88;1.58;;;;;;;;;;6343413;22;20041;-95
2023/06/04 11:49:12;;;;;;;3.55;1.70;;;;;;;;;;6340675;22;20030;-96
2023/06/04 11:51:40;;;;;;;3.45;1.58;;;;;;;;;;6342932;22;20006;-96
2023/06/04 11:57:19;;;;;;;4.45;2.30;;;;;;;;;;6348691;22;20017;-96
2023/06/04 12:03:12;;;;;;;3.40;1.70;;;;;;;;;;6271717;22;20015;-95
2023/06/04 12:08:51;;;;;;;4.53;1.80;;;;;;;;;;6333738;22;20502;-96
2023/06/04 12:11:39;;;;;;;5.28;2.05;;;;;;;;;;6317077;22;20079;-94
2023/06/04 12:14:05;;;;;;;8.52;2.22;;;;;;;;;;6317343;22;20011;-95
2023/06/04 12:16:32;;;;;;;5.43;1.83;;;;;;;;;;6316529;22;20090;-96
2023/06/04 12:49:02;;;;;;;2.20;1.30;;;;;;;;;;6327271;22;20034;-95
2023/06/04 12:51:38;;;;;;;2.20;1.50;;;;;;;;;;6283441;22;20019;-95
2023/06/04 12:54:05;;;;;;;4.43;1.70;;;;;;;;;;6234142;22;20353;-95
2023/06/04 12:56:57;;;;;;;;;;;;;;;;;;;;;
2023/06/04 12:59:27;;;;;;;11.02;2.25;;;;;;;;;;6322076;22;20643;-94
2023/06/04 13:01:54;;;;;;;2.78;1.40;;;;;;;;;;6312874;22;20502;-93
2023/06/04 13:04:23;;;;;;;6.45;2.08;;;;;;;;;;6314323;22;20007;-95
2023/06/04 13:07:05;;;;;;;;;;;;;;;;;;;;;
2023/06/04 13:09:41;;;;;;;2.75;1.65;;;;;;;;;;6344609;22;20362;-93
2023/06/04 13:12:09;;;;;;;6.03;2.03;;;;;;;;;;6290183;22;20379;-94
2023/06/04 13:14:35;;;;;;;4.07;1.90;;;;;;;;;;6290086;22;20037;-95
2023/06/04 13:17:01;;;;;;;5.65;1.92;;;;;;;;;;6293687;22;20642;-94
2023/06/04 13:19:28;;;;;;;3.00;1.33;;;;;;;;;;6291216;22;20013;-96
2023/06/04 13:22:00;;;;;;;7.65;1.48;;;;;;;;;;6288839;22;20025;-95
2023/06/04 13:24:26;;;;;;;5.40;1.70;;;;;;;;;;6289780;22;20372;-95
2023/06/04 13:26:52;;;;;;;2.42;1.40;;;;;;;;;;6315933;22;20379;-96
2023/06/04 13:29:22;;;;;;;5.97;2.15;;;;;;;;;;6339548;22;20002;-95
2023/06/04 13:31:49;;;;;;;41.33;3.92;;;;;;;;;;6276476;22;20008;-94
2023/06/04 13:34:15;;;;;;;31.38;3.63;;;;;;;;;;6250651;22;20181;-94
2023/06/04 13:37:01;;;;;;;17.60;2.42;;;;;;;;;;6248970;22;20465;-94
2023/06/04 13:39:28;;;;;;;16.67;2.27;;;;;;;;;;6253694;22;20129;-96
2023/06/04 13:41:58;;;;;;;3.70;1.50;;;;;;;;;;6229059;22;20075;-96
2023/06/04 13:44:26;;;;;;;7.07;1.80;;;;;;;;;;6227689;22;20016;-96
2023/06/04 13:47:03;;;;;;;6.80;1.58;;;;;;;;;;6228106;22;20018;-95
2023/06/04 13:49:34;;;;;;;2.53;1.50;;;;;;;;;;6238709;22;20011;-95
2023/06/04 13:52:00;;;;;;;5.32;2.10;;;;;;;;;;6260082;22;20007;-95
2023/06/04 13:54:45;;;;;;;6.70;2.35;;;;;;;;;;6260376;22;20007;-95
2023/06/04 14:00:01;;;;;;;2.78;1.48;;;;;;;;;;6289808;22;20056;-96
2023/06/04 14:02:27;;;;;;;5.63;1.95;;;;;;;;;;6258948;22;20446;-95
2023/06/04 14:04:54;;;;;;;2.60;1.50;;;;;;;;;;6284113;22;20034;-94
2023/06/04 14:07:21;;;;;;;3.70;1.88;;;;;;;;;;6282214;22;20085;-96
2023/06/04 14:09:48;;;;;;;3.70;1.65;;;;;;;;;;6303987;22;20394;-95
2023/06/04 14:12:24;;;;;;;4.70;1.73;;;;;;;;;;6346203;22;20028;-94
2023/06/04 14:14:55;;;;;;;3.55;1.60;;;;;;;;;;6322004;22;20065;-95
2023/06/04 14:17:21;;;;;;;6.20;1.77;;;;;;;;;;6346752;22;20010;-94
2023/06/04 14:19:50;;;;;;;3.63;1.80;;;;;;;;;;6321261;22;20010;-95
2023/06/04 14:22:25;;;;;;;7.70;2.22;;;;;;;;;;6322538;22;20016;-96
2023/06/04 14:25:27;;;;;;;2.15;1.50;;;;;;;;;;6345475;22;20006;-95
2023/06/04 14:27:56;;;;;;;4.80;2.17;;;;;;;;;;6221357;23;20066;-94
2023/06/04 14:30:23;;;;;;;2.53;1.40;;;;;;;;;;6217764;22;20082;-95
2023/06/04 14:32:51;;;;;;;3.20;1.50;;;;;;;;;;6322124;22;20006;-94
2023/06/04 14:35:20;;;;;;;8.43;2.10;;;;;;;;;;6320899;22;20002;-96
2023/06/04 14:37:46;;;;;;;3.03;1.20;;;;;;;;;;6345102;22;20040;-93
2023/06/04 14:40:15;;;;;;;4.45;1.70;;;;;;;;;;6320126;22;20025;-93
2023/06/04 14:42:44;;;;;;;3.42;1.40;;;;;;;;;;6321049;22;20379;-91
2023/06/04 14:45:25;;;;;;;;;;;;;;;;;;;;;
2023/06/04 14:47:51;;;;;;;4.35;1.75;;;;;;;;;;6375063;22;20078;-94
2023/06/04 14:50:24;;;;;;;3.45;1.35;;;;;;;;;;6325414;22;20237;-95
2023/06/04 14:52:53;;;;;;;7.28;1.90;;;;;;;;;;6321986;22;20010;-94
2023/06/04 14:55:19;;;;;;;5.20;1.58;;;;;;;;;;6323740;22;20010;-94
2023/06/04 14:57:51;;;;;;;6.35;3.03;;;;;;;;;;6322099;22;20010;-94
2023/06/04 15:00:19;;;;;;;4.38;1.90;;;;;;;;;;6347875;22;20029;-95
2023/06/04 15:02:54;;;;;;;5.25;1.95;;;;;;;;;;6322390;22;20034;-94
2023/06/04 15:05:24;;;;;;;5.47;3.00;;;;;;;;;;6321790;22;20504;-93
2023/06/04 15:07:52;;;;;;;4.80;2.42;;;;;;;;;;6321046;22;20010;-93
2023/06/04 15:10:18;;;;;;;6.07;2.00;;;;;;;;;;6347655;22;20318;-95
2023/06/04 15:12:44;;;;;;;3.35;1.95;;;;;;;;;;6318284;22;20006;-94
2023/06/04 15:15:10;;;;;;;4.22;2.08;;;;;;;;;;6322486;22;20007;-94
2023/06/04 15:17:37;;;;;;;5.03;2.05;;;;;;;;;;6346031;22;20014;-91
2023/06/04 15:20:07;;;;;;;3.83;1.88;;;;;;;;;;6318316;22;20468;-93
2023/06/04 15:22:36;;;;;;;5.82;2.10;;;;;;;;;;6346086;22;20064;-93
2023/06/04 15:25:03;;;;;;;7.15;2.00;;;;;;;;;;6320574;22;20041;-93
2023/06/04 15:27:29;;;;;;;3.65;2.05;;;;;;;;;;6343736;22;20006;-92
2023/06/04 15:29:59;;;;;;;7.20;3.40;;;;;;;;;;6345462;22;20009;-93
2023/06/04 15:32:25;;;;;;;8.80;2.00;;;;;;;;;;6318910;22;20017;-93
2023/06/04 15:34:52;;;;;;;8.02;3.30;;;;;;;;;;6317950;22;20003;-94
2023/06/04 15:37:21;;;;;;;6.03;4.00;;;;;;;;;;6320871;22;20010;-95
2023/06/04 15:39:48;;;;;;;8.15;4.28;;;;;;;;;;6321936;22;20432;-92
2023/06/04 15:42:14;;;;;;;5.35;3.22;;;;;;;;;;6318803;22;20010;-94
2023/06/04 15:44:40;;;;;;;10.60;5.53;;;;;;;;;;6319787;22;20432;-93
2023/06/04 15:47:06;;;;;;;7.97;2.35;;;;;;;;;;6344971;22;20006;-92
2023/06/04 15:49:32;;;;;;;6.00;2.58;;;;;;;;;;6344164;22;20003;-93
2023/06/04 15:51:58;;;;;;;5.38;2.53;;;;;;;;;;6320730;22;20415;-92
2023/06/04 15:54:25;;;;;;;9.38;2.75;;;;;;;;;;6348350;22;20017;-94
2023/06/04 15:56:51;;;;;;;6.80;2.83;;;;;;;;;;6354146;22;20010;-94
2023/06/04 15:59:21;;;;;;;3.47;1.77;;;;;;;;;;6329741;22;20028;-92
2023/06/04 16:01:54;;;;;;;6.32;2.63;;;;;;;;;;6356181;22;20013;-94
2023/06/04 16:04:23;;;;;;;12.63;3.28;;;;;;;;;;6331879;22;20006;-95
2023/06/04 16:06:54;;;;;;;4.47;2.85;;;;;;;;;;6357871;22;20006;-95
2023/06/04 16:09:20;;;;;;;23.45;14.13;;;;;;;;;;6329281;22;20018;-95
2023/06/04 16:11:47;;;;;;;6.30;2.88;;;;;;;;;;6356883;22;20025;-94
2023/06/04 16:14:13;;;;;;;7.90;2.63;;;;;;;;;;6320779;22;20007;-93
2023/06/04 16:16:39;;;;;;;7.00;2.92;;;;;;;;;;6327971;22;20010;-96
2023/06/04 16:21:52;;;;;;;7.82;4.78;;;;;;;;;;6306210;22;20034;-93
2023/06/04 16:24:20;;;;;;;4.22;2.40;;;;;;;;;;6322795;22;20014;-94
2023/06/04 16:26:46;;;;;;;9.98;1.98;;;;;;;;;;6347324;22;20078;-94
2023/06/04 16:29:12;;;;;;;4.43;1.98;;;;;;;;;;6347023;22;20002;-94
2023/06/04 16:31:39;;;;;;;4.25;1.95;;;;;;;;;;6320704;22;20006;-95
2023/06/04 16:34:05;;;;;;;9.60;2.47;;;;;;;;;;6325678;22;20025;-93